createdAt,value
2018-09-24T00:00:30.932Z,1007.96
2018-09-24T00:01:30.934Z,1008.02
2018-09-24T00:02:31.130Z,1008.00
2018-09-24T00:03:30.858Z,1008.06
2018-09-24T00:04:30.847Z,1008.10
2018-09-24T00:05:30.839Z,1008.10
2018-09-24T00:06:30.837Z,1008.14
2018-09-24T00:07:30.861Z,1008.18
2018-09-24T00:08:30.814Z,1008.22
2018-09-24T00:09:31.067Z,1008.20
2018-09-24T00:10:31.049Z,1008.24
2018-09-24T00:11:30.779Z,1008.27
2018-09-24T00:12:30.817Z,1008.28
2018-09-24T00:13:30.761Z,1008.29
2018-09-24T00:14:30.740Z,1008.24
2018-09-24T00:15:31.009Z,1008.29
2018-09-24T00:16:30.734Z,1008.33
2018-09-24T00:17:30.708Z,1008.35
2018-09-24T00:18:30.966Z,1008.39
2018-09-24T00:19:30.813Z,1008.34
2018-09-24T00:20:30.706Z,1008.39
2018-09-24T00:21:30.670Z,1008.31
2018-09-24T00:22:30.918Z,1008.38
2018-09-24T00:23:30.649Z,1008.40
2018-09-24T00:24:30.765Z,1008.40
2018-09-24T00:25:30.628Z,1008.40
2018-09-24T00:26:30.627Z,1008.45
2018-09-24T00:27:30.626Z,1008.48
2018-09-24T00:28:30.589Z,1008.49
2018-09-24T00:29:30.577Z,1008.42
2018-09-24T00:30:30.622Z,1008.39
2018-09-24T00:31:30.559Z,1008.39
2018-09-24T00:32:30.564Z,1008.39
2018-09-24T00:33:30.798Z,1008.39
2018-09-24T00:34:30.781Z,1008.42
2018-09-24T00:35:30.516Z,1008.45
2018-09-24T00:36:30.501Z,1008.45
2018-09-24T00:37:30.488Z,1008.46
2018-09-24T00:38:30.479Z,1008.50
2018-09-24T00:39:30.464Z,1008.53
2018-09-24T00:40:30.455Z,1008.51
2018-09-24T00:41:30.447Z,1008.49
2018-09-24T00:42:30.435Z,1008.52
2018-09-24T00:43:30.483Z,1008.58
2018-09-24T00:44:30.441Z,1008.57
2018-09-24T00:45:30.666Z,1008.57
2018-09-24T00:46:30.392Z,1008.65
2018-09-24T00:47:30.377Z,1008.66
2018-09-24T00:48:30.380Z,1008.68
2018-09-24T00:49:30.380Z,1008.69
2018-09-24T00:50:30.368Z,1008.70
2018-09-24T00:51:30.607Z,1008.70
2018-09-24T00:52:30.323Z,1008.68
2018-09-24T00:53:30.318Z,1008.72
2018-09-24T00:54:30.306Z,1008.72
2018-09-24T00:55:30.287Z,1008.68
2018-09-24T00:56:30.543Z,1008.76
2018-09-24T00:57:30.656Z,1008.76
2018-09-24T00:58:30.257Z,1008.76
2018-09-24T00:59:30.507Z,1008.79
2018-09-24T01:00:30.253Z,1008.77
2018-09-24T01:01:30.220Z,1008.86
2018-09-24T01:02:30.214Z,1008.79
2018-09-24T01:03:30.200Z,1008.82
2018-09-24T01:04:30.187Z,1008.81
2018-09-24T01:05:30.194Z,1008.80
2018-09-24T01:06:30.167Z,1008.83
2018-09-24T01:07:30.433Z,1008.86
2018-09-24T01:08:30.669Z,1008.83
2018-09-24T01:09:30.136Z,1008.88
2018-09-24T01:10:30.128Z,1008.92
2018-09-24T01:11:30.119Z,1008.90
2018-09-24T01:12:30.353Z,1008.91
2018-09-24T01:13:30.362Z,1008.94
2018-09-24T01:14:30.083Z,1008.99
2018-09-24T01:15:30.069Z,1008.99
2018-09-24T01:16:30.058Z,1008.94
2018-09-24T01:17:30.046Z,1008.93
2018-09-24T01:18:31.049Z,1009.01
2018-09-24T01:19:30.290Z,1009.04
2018-09-24T01:20:30.020Z,1009.08
2018-09-24T01:21:30.009Z,1009.11
2018-09-24T01:22:30.033Z,1009.10
2018-09-24T01:23:29.983Z,1009.15
2018-09-24T01:24:29.965Z,1009.12
2018-09-24T01:25:30.223Z,1009.20
2018-09-24T01:26:29.967Z,1009.16
2018-09-24T01:27:29.932Z,1009.19
2018-09-24T01:28:29.924Z,1009.19
2018-09-24T01:29:30.174Z,1009.30
2018-09-24T01:30:29.900Z,1009.24
2018-09-24T01:31:30.165Z,1009.30
2018-09-24T01:32:29.887Z,1009.25
2018-09-24T01:33:29.884Z,1009.26
2018-09-24T01:34:29.866Z,1009.32
2018-09-24T01:35:30.108Z,1009.27
2018-09-24T01:36:29.838Z,1009.25
2018-09-24T01:37:29.827Z,1009.33
2018-09-24T01:38:29.824Z,1009.35
2018-09-24T01:39:29.803Z,1009.45
2018-09-24T01:40:29.787Z,1009.45
2018-09-24T01:41:29.779Z,1009.43
2018-09-24T01:42:29.786Z,1009.46
2018-09-24T01:43:29.768Z,1009.48
2018-09-24T01:44:29.748Z,1009.52
2018-09-24T01:45:30.011Z,1009.46
2018-09-24T01:46:29.723Z,1009.53
2018-09-24T01:47:29.711Z,1009.57
2018-09-24T01:48:29.701Z,1009.53
2018-09-24T01:49:29.709Z,1009.50
2018-09-24T01:50:29.686Z,1009.52
2018-09-24T01:51:29.695Z,1009.54
2018-09-24T01:52:29.654Z,1009.55
2018-09-24T01:53:29.641Z,1009.59
2018-09-24T01:54:29.654Z,1009.59
2018-09-24T01:55:29.638Z,1009.60
2018-09-24T01:56:29.617Z,1009.64
2018-09-24T01:57:29.632Z,1009.69
2018-09-24T01:58:29.592Z,1009.67
2018-09-24T01:59:29.595Z,1009.71
2018-09-24T02:00:29.573Z,1009.74
2018-09-24T02:01:29.818Z,1009.72
2018-09-24T02:02:29.557Z,1009.74
2018-09-24T02:03:29.816Z,1009.78
2018-09-24T02:04:29.521Z,1009.83
2018-09-24T02:05:29.552Z,1009.82
2018-09-24T02:06:29.764Z,1009.87
2018-09-24T02:07:29.488Z,1009.88
2018-09-24T02:08:29.750Z,1009.91
2018-09-24T02:09:29.491Z,1009.91
2018-09-24T02:10:29.461Z,1009.92
2018-09-24T02:11:29.704Z,1010.00
2018-09-24T02:12:29.435Z,1009.96
2018-09-24T02:13:29.715Z,1009.96
2018-09-24T02:14:29.676Z,1009.99
2018-09-24T02:15:29.398Z,1009.95
2018-09-24T02:16:29.388Z,1009.97
2018-09-24T02:17:29.397Z,1009.90
2018-09-24T02:18:29.630Z,1009.91
2018-09-24T02:19:29.651Z,1009.91
2018-09-24T02:20:29.613Z,1009.90
2018-09-24T02:21:29.340Z,1009.95
2018-09-24T02:22:29.321Z,1009.92
2018-09-24T02:23:29.312Z,1009.96
2018-09-24T02:24:29.303Z,1009.98
2018-09-24T02:25:29.560Z,1009.95
2018-09-24T02:26:29.289Z,1009.93
2018-09-24T02:27:29.531Z,1009.98
2018-09-24T02:28:29.529Z,1010.00
2018-09-24T02:29:29.504Z,1010.03
2018-09-24T02:30:29.325Z,1010.02
2018-09-24T02:31:29.223Z,1010.02
2018-09-24T02:32:29.209Z,1010.04
2018-09-24T02:33:29.459Z,1010.05
2018-09-24T02:34:29.192Z,1010.02
2018-09-24T02:35:29.175Z,1010.01
2018-09-24T02:36:29.234Z,1010.01
2018-09-24T02:37:29.162Z,1010.02
2018-09-24T02:38:29.151Z,1010.04
2018-09-24T02:39:29.139Z,1010.05
2018-09-24T02:40:29.127Z,1010.04
2018-09-24T02:41:29.395Z,1010.12
2018-09-24T02:42:29.117Z,1010.07
2018-09-24T02:43:29.099Z,1010.17
2018-09-24T02:44:29.092Z,1010.16
2018-09-24T02:45:29.070Z,1010.13
2018-09-24T02:46:29.061Z,1010.17
2018-09-24T02:47:29.340Z,1010.21
2018-09-24T02:48:29.302Z,1010.22
2018-09-24T02:49:29.032Z,1010.22
2018-09-24T02:50:29.054Z,1010.27
2018-09-24T02:51:29.273Z,1010.24
2018-09-24T02:52:29.044Z,1010.30
2018-09-24T02:53:28.989Z,1010.30
2018-09-24T02:54:28.975Z,1010.33
2018-09-24T02:55:28.975Z,1010.34
2018-09-24T02:56:28.980Z,1010.39
2018-09-24T02:57:29.256Z,1010.41
2018-09-24T02:58:28.938Z,1010.45
2018-09-24T02:59:29.180Z,1010.37
2018-09-24T03:00:29.170Z,1010.45
2018-09-24T03:01:29.063Z,1010.39
2018-09-24T03:02:29.151Z,1010.43
2018-09-24T03:03:28.885Z,1010.45
2018-09-24T03:04:28.864Z,1010.43
2018-09-24T03:05:28.852Z,1010.48
2018-09-24T03:06:28.843Z,1010.54
2018-09-24T03:07:28.844Z,1010.48
2018-09-24T03:08:28.845Z,1010.52
2018-09-24T03:09:28.835Z,1010.55
2018-09-24T03:10:29.058Z,1010.54
2018-09-24T03:11:28.786Z,1010.62
2018-09-24T03:12:29.174Z,1010.59
2018-09-24T03:13:28.764Z,1010.60
2018-09-24T03:14:28.752Z,1010.61
2018-09-24T03:15:28.761Z,1010.69
2018-09-24T03:16:28.993Z,1010.68
2018-09-24T03:17:29.029Z,1010.63
2018-09-24T03:18:28.984Z,1010.67
2018-09-24T03:19:28.695Z,1010.68
2018-09-24T03:20:28.687Z,1010.64
2018-09-24T03:21:28.683Z,1010.68
2018-09-24T03:22:28.669Z,1010.71
2018-09-24T03:23:28.657Z,1010.71
2018-09-24T03:24:28.658Z,1010.75
2018-09-24T03:25:28.634Z,1010.76
2018-09-24T03:26:28.747Z,1010.73
2018-09-24T03:27:28.623Z,1010.80
2018-09-24T03:28:28.621Z,1010.76
2018-09-24T03:29:28.601Z,1010.81
2018-09-24T03:30:28.592Z,1010.80
2018-09-24T03:31:28.563Z,1010.85
2018-09-24T03:32:28.556Z,1010.85
2018-09-24T03:33:28.546Z,1010.91
2018-09-24T03:34:28.541Z,1010.89
2018-09-24T03:35:28.805Z,1010.87
2018-09-24T03:36:28.538Z,1010.85
2018-09-24T03:37:28.505Z,1010.89
2018-09-24T03:38:28.499Z,1010.90
2018-09-24T03:39:28.478Z,1010.85
2018-09-24T03:40:28.477Z,1010.89
2018-09-24T03:41:28.461Z,1010.89
2018-09-24T03:42:28.971Z,1010.86
2018-09-24T03:43:28.444Z,1010.87
2018-09-24T03:44:28.444Z,1010.83
2018-09-24T03:45:28.423Z,1010.85
2018-09-24T03:46:28.442Z,1010.90
2018-09-24T03:47:28.389Z,1010.89
2018-09-24T03:48:29.206Z,1010.95
2018-09-24T03:49:28.366Z,1010.90
2018-09-24T03:50:28.377Z,1011.04
2018-09-24T03:51:28.345Z,1011.03
2018-09-24T03:52:28.335Z,1010.96
2018-09-24T03:53:28.329Z,1011.03
2018-09-24T03:54:28.331Z,1011.04
2018-09-24T03:55:28.300Z,1011.02
2018-09-24T03:56:28.291Z,1011.10
2018-09-24T03:57:28.313Z,1011.11
2018-09-24T03:58:28.279Z,1011.12
2018-09-24T03:59:28.257Z,1011.15
2018-09-24T04:00:28.251Z,1011.18
2018-09-24T04:01:28.238Z,1011.18
2018-09-24T04:02:28.234Z,1011.19
2018-09-24T04:03:28.214Z,1011.21
2018-09-24T04:04:28.203Z,1011.21
2018-09-24T04:05:28.218Z,1011.20
2018-09-24T04:06:28.183Z,1011.21
2018-09-24T04:07:28.170Z,1011.19
2018-09-24T04:08:28.157Z,1011.20
2018-09-24T04:09:28.153Z,1011.21
2018-09-24T04:10:28.139Z,1011.25
2018-09-24T04:11:28.388Z,1011.29
2018-09-24T04:12:28.120Z,1011.28
2018-09-24T04:13:28.388Z,1011.34
2018-09-24T04:14:28.095Z,1011.30
2018-09-24T04:15:28.077Z,1011.32
2018-09-24T04:16:28.078Z,1011.33
2018-09-24T04:17:28.060Z,1011.33
2018-09-24T04:18:28.337Z,1011.40
2018-09-24T04:19:28.045Z,1011.36
2018-09-24T04:20:28.023Z,1011.43
2018-09-24T04:21:28.022Z,1011.43
2018-09-24T04:22:28.011Z,1011.42
2018-09-24T04:23:28.005Z,1011.42
2018-09-24T04:24:27.992Z,1011.41
2018-09-24T04:25:27.969Z,1011.46
2018-09-24T04:26:28.222Z,1011.44
2018-09-24T04:27:27.970Z,1011.44
2018-09-24T04:28:27.940Z,1011.56
2018-09-24T04:29:28.210Z,1011.53
2018-09-24T04:30:27.915Z,1011.55
2018-09-24T04:31:27.912Z,1011.56
2018-09-24T04:32:27.909Z,1011.60
2018-09-24T04:33:27.891Z,1011.59
2018-09-24T04:34:27.869Z,1011.63
2018-09-24T04:35:28.121Z,1011.61
2018-09-24T04:36:28.118Z,1011.66
2018-09-24T04:37:27.832Z,1011.60
2018-09-24T04:38:27.843Z,1011.67
2018-09-24T04:39:27.831Z,1011.66
2018-09-24T04:40:27.814Z,1011.68
2018-09-24T04:41:27.789Z,1011.66
2018-09-24T04:42:27.817Z,1011.70
2018-09-24T04:43:27.786Z,1011.75
2018-09-24T04:44:28.041Z,1011.68
2018-09-24T04:45:27.874Z,1011.74
2018-09-24T04:46:27.749Z,1011.75
2018-09-24T04:47:27.735Z,1011.83
2018-09-24T04:48:27.710Z,1011.82
2018-09-24T04:49:27.710Z,1011.83
2018-09-24T04:50:27.698Z,1011.83
2018-09-24T04:51:27.682Z,1011.82
2018-09-24T04:52:27.799Z,1011.94
2018-09-24T04:53:27.662Z,1011.89
2018-09-24T04:54:27.656Z,1011.91
2018-09-24T04:55:27.653Z,1011.88
2018-09-24T04:56:27.997Z,1011.90
2018-09-24T04:57:27.612Z,1011.92
2018-09-24T04:58:27.636Z,1011.95
2018-09-24T04:59:27.858Z,1011.96
2018-09-24T05:00:27.589Z,1012.01
2018-09-24T05:01:27.839Z,1012.02
2018-09-24T05:02:27.562Z,1012.05
2018-09-24T05:03:27.557Z,1012.07
2018-09-24T05:04:27.544Z,1012.07
2018-09-24T05:05:27.527Z,1012.02
2018-09-24T05:06:27.801Z,1012.04
2018-09-24T05:07:27.509Z,1012.07
2018-09-24T05:08:27.765Z,1012.09
2018-09-24T05:09:27.480Z,1012.09
2018-09-24T05:10:27.746Z,1012.12
2018-09-24T05:11:27.567Z,1012.14
2018-09-24T05:12:27.701Z,1012.14
2018-09-24T05:13:27.449Z,1012.16
2018-09-24T05:14:27.430Z,1012.19
2018-09-24T05:15:27.411Z,1012.16
2018-09-24T05:16:27.824Z,1012.16
2018-09-24T05:17:27.394Z,1012.21
2018-09-24T05:18:27.384Z,1012.19
2018-09-24T05:19:27.385Z,1012.25
2018-09-24T05:20:27.371Z,1012.24
2018-09-24T05:21:27.347Z,1012.27
2018-09-24T05:22:27.601Z,1012.27
2018-09-24T05:23:27.476Z,1012.33
2018-09-24T05:24:27.330Z,1012.30
2018-09-24T05:25:27.569Z,1012.34
2018-09-24T05:26:27.296Z,1012.36
2018-09-24T05:27:27.376Z,1012.37
2018-09-24T05:28:27.284Z,1012.38
2018-09-24T05:29:27.541Z,1012.39
2018-09-24T05:30:27.404Z,1012.42
2018-09-24T05:31:27.615Z,1012.41
2018-09-24T05:32:27.246Z,1012.39
2018-09-24T05:33:27.239Z,1012.43
2018-09-24T05:34:27.262Z,1012.47
2018-09-24T05:35:28.504Z,1012.44
2018-09-24T05:36:27.463Z,1012.47
2018-09-24T05:37:27.172Z,1012.49
2018-09-24T05:38:27.185Z,1012.47
2018-09-24T05:39:27.150Z,1012.48
2018-09-24T05:40:27.172Z,1012.53
2018-09-24T05:41:27.125Z,1012.55
2018-09-24T05:42:27.124Z,1012.57
2018-09-24T05:43:27.114Z,1012.60
2018-09-24T05:44:27.105Z,1012.58
2018-09-24T05:45:27.094Z,1012.63
2018-09-24T05:46:28.276Z,1012.60
2018-09-24T05:47:27.070Z,1012.59
2018-09-24T05:48:27.323Z,1012.54
2018-09-24T05:49:27.048Z,1012.64
2018-09-24T05:50:27.075Z,1012.65
2018-09-24T05:51:27.162Z,1012.60
2018-09-24T05:52:27.039Z,1012.64
2018-09-24T05:53:27.271Z,1012.64
2018-09-24T05:54:27.071Z,1012.68
2018-09-24T05:55:27.002Z,1012.72
2018-09-24T05:56:26.978Z,1012.76
2018-09-24T05:57:26.955Z,1012.76
2018-09-24T05:58:26.937Z,1012.81
2018-09-24T05:59:26.932Z,1012.77
2018-09-24T06:00:30.462Z,1012.82
2018-09-24T06:01:26.930Z,1012.85
2018-09-24T06:02:26.932Z,1012.85
2018-09-24T06:03:26.953Z,1012.87
2018-09-24T06:04:27.208Z,1012.90
2018-09-24T06:05:26.867Z,1012.94
2018-09-24T06:06:26.876Z,1012.95
2018-09-24T06:07:26.848Z,1012.93
2018-09-24T06:08:27.125Z,1012.97
2018-09-24T06:09:26.822Z,1013.00
2018-09-24T06:10:26.820Z,1013.02
2018-09-24T06:11:26.812Z,1013.02
2018-09-24T06:12:26.783Z,1013.06
2018-09-24T06:13:26.798Z,1013.02
2018-09-24T06:14:27.296Z,1013.06
2018-09-24T06:15:26.759Z,1013.06
2018-09-24T06:16:27.396Z,1013.07
2018-09-24T06:17:26.728Z,1013.09
2018-09-24T06:18:26.728Z,1013.10
2018-09-24T06:19:26.725Z,1013.18
2018-09-24T06:20:26.707Z,1013.17
2018-09-24T06:21:26.956Z,1013.25
2018-09-24T06:22:26.703Z,1013.24
2018-09-24T06:23:26.698Z,1013.26
2018-09-24T06:24:26.693Z,1013.27
2018-09-24T06:25:26.658Z,1013.33
2018-09-24T06:26:26.631Z,1013.31
2018-09-24T06:27:26.623Z,1013.35
2018-09-24T06:28:26.921Z,1013.30
2018-09-24T06:29:27.637Z,1013.34
2018-09-24T06:30:26.601Z,1013.37
2018-09-24T06:31:31.066Z,1013.33
2018-09-24T06:32:26.569Z,1013.37
2018-09-24T06:33:26.972Z,1013.34
2018-09-24T06:34:26.634Z,1013.39
2018-09-24T06:35:26.564Z,1013.41
2018-09-24T06:36:26.527Z,1013.38
2018-09-24T06:37:26.514Z,1013.44
2018-09-24T06:38:26.517Z,1013.40
2018-09-24T06:39:26.498Z,1013.38
2018-09-24T06:40:26.506Z,1013.39
2018-09-24T06:41:26.500Z,1013.43
2018-09-24T06:42:26.491Z,1013.40
2018-09-24T06:43:26.454Z,1013.42
2018-09-24T06:44:26.435Z,1013.47
2018-09-24T06:45:26.421Z,1013.48
2018-09-24T06:46:29.388Z,1013.50
2018-09-24T06:47:26.449Z,1013.51
2018-09-24T06:48:26.419Z,1013.54
2018-09-24T06:49:26.459Z,1013.54
2018-09-24T06:50:26.367Z,1013.59
2018-09-24T06:51:26.374Z,1013.52
2018-09-24T06:52:26.433Z,1013.51
2018-09-24T06:53:26.603Z,1013.57
2018-09-24T06:54:26.337Z,1013.62
2018-09-24T06:55:26.338Z,1013.60
2018-09-24T06:56:26.445Z,1013.64
2018-09-24T06:57:26.295Z,1013.65
2018-09-24T06:58:26.555Z,1013.69
2018-09-24T06:59:26.332Z,1013.67
2018-09-24T07:00:26.317Z,1013.66
2018-09-24T07:01:27.709Z,1013.66
2018-09-24T07:02:26.247Z,1013.67
2018-09-24T07:03:26.229Z,1013.74
2018-09-24T07:04:26.218Z,1013.75
2018-09-24T07:05:46.908Z,1013.71
2018-09-24T07:06:26.224Z,1013.76
2018-09-24T07:07:26.187Z,1013.77
2018-09-24T07:08:26.182Z,1013.75
2018-09-24T07:09:26.173Z,1013.74
2018-09-24T07:10:26.159Z,1013.83
2018-09-24T07:11:26.244Z,1013.80
2018-09-24T07:12:26.660Z,1013.84
2018-09-24T07:13:26.135Z,1013.75
2018-09-24T07:14:26.114Z,1013.78
2018-09-24T07:15:26.097Z,1013.80
2018-09-24T07:16:26.082Z,1013.81
2018-09-24T07:17:27.527Z,1013.81
2018-09-24T07:18:26.650Z,1013.81
2018-09-24T07:19:26.058Z,1013.77
2018-09-24T07:20:27.923Z,1013.81
2018-09-24T07:21:26.057Z,1013.84
2018-09-24T07:22:26.057Z,1013.89
2018-09-24T07:23:26.008Z,1013.88
2018-09-24T07:24:26.006Z,1013.87
2018-09-24T07:25:25.979Z,1013.92
2018-09-24T07:26:25.995Z,1013.88
2018-09-24T07:27:26.021Z,1013.95
2018-09-24T07:28:26.067Z,1013.98
2018-09-24T07:29:26.209Z,1014.03
2018-09-24T07:30:25.964Z,1014.01
2018-09-24T07:31:26.382Z,1014.01
2018-09-24T07:32:25.912Z,1014.06
2018-09-24T07:33:26.157Z,1014.08
2018-09-24T07:34:25.887Z,1014.11
2018-09-24T07:35:25.878Z,1014.12
2018-09-24T07:36:25.870Z,1014.14
2018-09-24T07:37:25.850Z,1014.17
2018-09-24T07:38:25.838Z,1014.17
2018-09-24T07:39:25.861Z,1014.18
2018-09-24T07:40:25.832Z,1014.17
2018-09-24T07:41:25.813Z,1014.22
2018-09-24T07:42:26.067Z,1014.17
2018-09-24T07:43:26.095Z,1014.19
2018-09-24T07:44:26.066Z,1014.20
2018-09-24T07:45:25.781Z,1014.21
2018-09-24T07:46:25.764Z,1014.23
2018-09-24T07:47:25.769Z,1014.27
2018-09-24T07:48:25.734Z,1014.28
2018-09-24T07:49:25.728Z,1014.37
2018-09-24T07:50:25.714Z,1014.36
2018-09-24T07:51:25.725Z,1014.37
2018-09-24T07:52:25.692Z,1014.42
2018-09-24T07:53:25.947Z,1014.43
2018-09-24T07:54:25.667Z,1014.45
2018-09-24T07:55:25.693Z,1014.40
2018-09-24T07:56:25.660Z,1014.47
2018-09-24T07:57:25.672Z,1014.49
2018-09-24T07:58:26.144Z,1014.48
2018-09-24T07:59:25.700Z,1014.48
2018-09-24T08:00:25.605Z,1014.52
2018-09-24T08:01:25.593Z,1014.49
2018-09-24T08:02:25.600Z,1014.51
2018-09-24T08:03:25.572Z,1014.46
2018-09-24T08:04:25.590Z,1014.51
2018-09-24T08:05:25.590Z,1014.50
2018-09-24T08:06:25.533Z,1014.56
2018-09-24T08:07:25.563Z,1014.54
2018-09-24T08:08:25.803Z,1014.64
2018-09-24T08:09:25.775Z,1014.68
2018-09-24T08:10:25.494Z,1014.62
2018-09-24T08:11:25.744Z,1014.77
2018-09-24T08:12:25.504Z,1014.66
2018-09-24T08:13:25.461Z,1014.74
2018-09-24T08:14:25.460Z,1014.70
2018-09-24T08:15:28.374Z,1014.76
2018-09-24T08:16:26.027Z,1014.75
2018-09-24T08:17:25.414Z,1014.76
2018-09-24T08:18:26.297Z,1014.76
2018-09-24T08:19:25.478Z,1014.77
2018-09-24T08:20:25.690Z,1014.78
2018-09-24T08:21:25.386Z,1014.73
2018-09-24T08:22:25.817Z,1014.85
2018-09-24T08:23:25.363Z,1014.87
2018-09-24T08:24:25.334Z,1014.87
2018-09-24T08:25:25.606Z,1014.81
2018-09-24T08:26:25.309Z,1014.93
2018-09-24T08:27:25.430Z,1014.93
2018-09-24T08:28:25.568Z,1014.93
2018-09-24T08:29:25.282Z,1014.95
2018-09-24T08:30:25.274Z,1014.89
2018-09-24T08:31:25.260Z,1014.91
2018-09-24T08:32:25.529Z,1014.94
2018-09-24T08:33:25.257Z,1014.96
2018-09-24T08:34:25.220Z,1014.87
2018-09-24T08:35:25.224Z,1014.92
2018-09-24T08:36:25.257Z,1014.92
2018-09-24T08:37:25.214Z,1014.96
2018-09-24T08:38:25.196Z,1014.98
2018-09-24T08:39:25.183Z,1015.06
2018-09-24T08:40:25.163Z,1015.08
2018-09-24T08:41:25.427Z,1015.01
2018-09-24T08:42:25.205Z,1015.02
2018-09-24T08:43:25.135Z,1015.06
2018-09-24T08:44:25.691Z,1015.06
2018-09-24T08:45:28.082Z,1015.09
2018-09-24T08:46:25.092Z,1015.12
2018-09-24T08:47:25.099Z,1015.13
2018-09-24T08:48:25.071Z,1015.08
2018-09-24T08:49:25.061Z,1015.02
2018-09-24T08:50:25.187Z,1015.04
2018-09-24T08:51:25.049Z,1015.10
2018-09-24T08:52:25.034Z,1015.10
2018-09-24T08:53:25.308Z,1015.08
2018-09-24T08:54:25.006Z,1015.05
2018-09-24T08:55:25.271Z,1015.07
2018-09-24T08:56:24.980Z,1015.05
2018-09-24T08:57:24.983Z,1015.04
2018-09-24T08:58:24.956Z,1015.06
2018-09-24T08:59:24.964Z,1015.13
2018-09-24T09:00:24.934Z,1015.07
2018-09-24T09:01:25.257Z,1015.08
2018-09-24T09:02:25.767Z,1015.14
2018-09-24T09:03:24.932Z,1015.12
2018-09-24T09:04:27.538Z,1015.19
2018-09-24T09:05:24.894Z,1015.19
2018-09-24T09:06:24.929Z,1015.20
2018-09-24T09:07:24.883Z,1015.11
2018-09-24T09:08:24.906Z,1015.13
2018-09-24T09:09:24.873Z,1015.15
2018-09-24T09:10:24.828Z,1015.12
2018-09-24T09:11:24.818Z,1015.20
2018-09-24T09:12:24.798Z,1015.17
2018-09-24T09:13:24.793Z,1015.18
2018-09-24T09:14:24.784Z,1015.24
2018-09-24T09:15:25.836Z,1015.17
2018-09-24T09:16:24.817Z,1015.13
2018-09-24T09:17:24.797Z,1015.23
2018-09-24T09:18:24.757Z,1015.17
2018-09-24T09:19:24.734Z,1015.24
2018-09-24T09:20:24.979Z,1015.22
2018-09-24T09:21:24.703Z,1015.25
2018-09-24T09:22:24.699Z,1015.30
2018-09-24T09:23:24.696Z,1015.23
2018-09-24T09:24:24.676Z,1015.26
2018-09-24T09:25:24.664Z,1015.36
2018-09-24T09:26:24.678Z,1015.30
2018-09-24T09:27:24.696Z,1015.38
2018-09-24T09:28:24.640Z,1015.29
2018-09-24T09:29:24.790Z,1015.33
2018-09-24T09:30:24.663Z,1015.32
2018-09-24T09:31:27.501Z,1015.28
2018-09-24T09:32:24.576Z,1015.35
2018-09-24T09:33:24.597Z,1015.36
2018-09-24T09:34:24.574Z,1015.38
2018-09-24T09:35:24.555Z,1015.35
2018-09-24T09:36:24.537Z,1015.36
2018-09-24T09:37:24.538Z,1015.38
2018-09-24T09:38:24.507Z,1015.40
2018-09-24T09:39:24.651Z,1015.32
2018-09-24T09:40:24.541Z,1015.48
2018-09-24T09:41:24.643Z,1015.49
2018-09-24T09:42:24.473Z,1015.43
2018-09-24T09:43:25.629Z,1015.45
2018-09-24T09:44:24.455Z,1015.39
2018-09-24T09:45:24.714Z,1015.41
2018-09-24T09:46:24.806Z,1015.41
2018-09-24T09:47:24.413Z,1015.41
2018-09-24T09:48:24.542Z,1015.40
2018-09-24T09:49:24.400Z,1015.44
2018-09-24T09:50:24.385Z,1015.43
2018-09-24T09:51:24.365Z,1015.50
2018-09-24T09:52:24.366Z,1015.49
2018-09-24T09:53:24.373Z,1015.48
2018-09-24T09:54:24.345Z,1015.41
2018-09-24T09:55:24.351Z,1015.40
2018-09-24T09:56:24.327Z,1015.37
2018-09-24T09:57:24.301Z,1015.37
2018-09-24T09:58:24.306Z,1015.45
2018-09-24T09:59:24.284Z,1015.37
2018-09-24T10:00:24.298Z,1015.41
2018-09-24T10:01:24.272Z,1015.38
2018-09-24T10:02:24.588Z,1015.37
2018-09-24T10:03:24.494Z,1015.37
2018-09-24T10:04:24.223Z,1015.40
2018-09-24T10:05:24.217Z,1015.45
2018-09-24T10:06:24.215Z,1015.47
2018-09-24T10:07:24.193Z,1015.49
2018-09-24T10:08:24.195Z,1015.43
2018-09-24T10:09:24.312Z,1015.42
2018-09-24T10:10:24.158Z,1015.40
2018-09-24T10:11:24.168Z,1015.42
2018-09-24T10:12:24.245Z,1015.44
2018-09-24T10:13:24.122Z,1015.39
2018-09-24T10:14:24.405Z,1015.35
2018-09-24T10:15:24.122Z,1015.43
2018-09-24T10:16:24.121Z,1015.41
2018-09-24T10:17:24.080Z,1015.41
2018-09-24T10:18:25.134Z,1015.39
2018-09-24T10:19:24.069Z,1015.31
2018-09-24T10:20:24.045Z,1015.26
2018-09-24T10:21:24.317Z,1015.20
2018-09-24T10:22:24.046Z,1015.26
2018-09-24T10:23:24.025Z,1015.34
2018-09-24T10:24:24.015Z,1015.31
2018-09-24T10:25:30.057Z,1015.39
2018-09-24T10:26:23.979Z,1015.39
2018-09-24T10:27:24.098Z,1015.46
2018-09-24T10:28:24.306Z,1015.45
2018-09-24T10:29:24.217Z,1015.45
2018-09-24T10:30:27.717Z,1015.54
2018-09-24T10:31:23.973Z,1015.55
2018-09-24T10:32:23.923Z,1015.69
2018-09-24T10:33:23.931Z,1015.65
2018-09-24T10:34:23.888Z,1015.67
2018-09-24T10:35:23.891Z,1015.75
2018-09-24T10:36:23.874Z,1015.67
2018-09-24T10:37:24.189Z,1015.70
2018-09-24T10:38:24.124Z,1015.75
2018-09-24T10:39:23.840Z,1015.77
2018-09-24T10:40:23.866Z,1015.79
2018-09-24T10:41:24.505Z,1015.81
2018-09-24T10:42:23.961Z,1015.81
2018-09-24T10:43:23.800Z,1015.77
2018-09-24T10:44:23.801Z,1015.77
2018-09-24T10:45:23.775Z,1015.78
2018-09-24T10:46:23.771Z,1015.79
2018-09-24T10:47:23.948Z,1015.81
2018-09-24T10:48:24.005Z,1015.74
2018-09-24T10:49:23.999Z,1015.80
2018-09-24T10:50:23.716Z,1015.84
2018-09-24T10:51:23.974Z,1015.81
2018-09-24T10:52:23.705Z,1015.79
2018-09-24T10:53:23.704Z,1015.79
2018-09-24T10:54:23.796Z,1015.75
2018-09-24T10:55:23.681Z,1015.69
2018-09-24T10:56:23.917Z,1015.69
2018-09-24T10:57:23.738Z,1015.69
2018-09-24T10:58:26.295Z,1015.70
2018-09-24T10:59:23.642Z,1015.72
2018-09-24T11:00:23.608Z,1015.76
2018-09-24T11:01:23.709Z,1015.78
2018-09-24T11:02:23.654Z,1015.81
2018-09-24T11:03:23.839Z,1015.80
2018-09-24T11:04:23.559Z,1015.77
2018-09-24T11:05:23.574Z,1015.78
2018-09-24T11:06:25.547Z,1015.77
2018-09-24T11:07:23.546Z,1015.73
2018-09-24T11:08:23.509Z,1015.75
2018-09-24T11:09:23.546Z,1015.76
2018-09-24T11:10:23.554Z,1015.76
2018-09-24T11:11:23.476Z,1015.74
2018-09-24T11:12:23.490Z,1015.70
2018-09-24T11:13:23.458Z,1015.73
2018-09-24T11:14:23.464Z,1015.76
2018-09-24T11:15:23.453Z,1015.72
2018-09-24T11:16:23.518Z,1015.78
2018-09-24T11:17:23.604Z,1015.76
2018-09-24T11:18:23.675Z,1015.75
2018-09-24T11:19:23.394Z,1015.77
2018-09-24T11:20:23.387Z,1015.76
2018-09-24T11:21:23.368Z,1015.74
2018-09-24T11:22:23.757Z,1015.73
2018-09-24T11:23:23.348Z,1015.74
2018-09-24T11:24:23.611Z,1015.66
2018-09-24T11:25:23.341Z,1015.71
2018-09-24T11:27:24.791Z,1015.63
2018-09-24T11:28:23.409Z,1015.64
2018-09-24T11:29:23.719Z,1015.65
2018-09-24T11:30:24.261Z,1015.68
2018-09-24T11:31:23.272Z,1015.65
2018-09-24T11:32:25.503Z,1015.70
